AFR306 LFPG-LFBO
Flight info
| Callsign | AFR306 |
|---|---|
| Flight time | 1h 3m |
| Altitude | 35000 |
| Route | ERIXU DCT ETAMO DCT GUERE DCT NARAK |
| Aircraft | A321/M-SDE3FGHIRWY/LB1 |
Departure
| Time | 2026-05-04 16:01 |
|---|---|
| Airport | Charles de Gaulle International Airport (LFPG) |
Arrival
| Time | 2026-05-04 17:04 |
|---|---|
| Airport | Toulouse-Blagnac Airport (LFBO) |
| Time | Latitude | Longitude | Altitude | Speed | Heading |
|---|---|---|---|---|---|
| 2026-05-04 15:30 | 49.00151 | 2.57819 | 355 ft | 0 kts | 355° |
| 2026-05-04 15:51 | 49.00130 | 2.57822 | 356 ft | 4 kts | 353° |
| 2026-05-04 15:51 | 49.00104 | 2.57826 | 359 ft | 4 kts | 4° |
| 2026-05-04 15:51 | 49.00079 | 2.57816 | 358 ft | 4 kts | 37° |
| 2026-05-04 15:51 | 49.00065 | 2.57787 | 364 ft | 3 kts | 83° |
| 2026-05-04 15:52 | 49.00064 | 2.57776 | 360 ft | 0 kts | 85° |
| 2026-05-04 15:54 | 49.00064 | 2.57783 | 354 ft | 4 kts | 85° |
| 2026-05-04 15:54 | 49.00071 | 2.57903 | 354 ft | 17 kts | 85° |
| 2026-05-04 15:55 | 49.00081 | 2.58089 | 354 ft | 17 kts | 85° |
| 2026-05-04 15:55 | 49.00083 | 2.58268 | 359 ft | 17 kts | 110° |
| 2026-05-04 15:55 | 48.99986 | 2.58295 | 354 ft | 15 kts | 182° |
| 2026-05-04 15:55 | 48.99927 | 2.58399 | 358 ft | 17 kts | 88° |
| 2026-05-04 15:56 | 48.99941 | 2.58645 | 354 ft | 28 kts | 84° |
| 2026-05-04 15:56 | 48.99957 | 2.58936 | 354 ft | 27 kts | 86° |
| 2026-05-04 15:56 | 48.99970 | 2.59219 | 354 ft | 27 kts | 85° |
| 2026-05-04 15:56 | 48.99985 | 2.59501 | 357 ft | 27 kts | 85° |
| 2026-05-04 15:57 | 48.99999 | 2.59780 | 354 ft | 26 kts | 85° |
| 2026-05-04 15:57 | 49.00014 | 2.60056 | 360 ft | 26 kts | 85° |
| 2026-05-04 15:57 | 49.00001 | 2.60211 | 362 ft | 11 kts | 139° |
| 2026-05-04 15:57 | 48.99930 | 2.60233 | 356 ft | 10 kts | 191° |
| 2026-05-04 15:58 | 48.99884 | 2.60203 | 361 ft | 0 kts | 208° |
| 2026-05-04 15:58 | 48.99890 | 2.60208 | 362 ft | 3 kts | 208° |
| 2026-05-04 15:58 | 48.99897 | 2.60214 | 356 ft | 0 kts | 208° |
| 2026-05-04 15:59 | 48.99896 | 2.60213 | 356 ft | 1 kts | 208° |
| 2026-05-04 16:00 | 48.99853 | 2.60165 | 363 ft | 16 kts | 229° |
| 2026-05-04 16:00 | 48.99817 | 2.59909 | 355 ft | 46 kts | 265° |
| 2026-05-04 16:00 | 48.99771 | 2.59037 | 361 ft | 115 kts | 265° |
| 2026-05-04 16:00 | 48.99691 | 2.57544 | 352 ft | 166 kts | 265° |
| 2026-05-04 16:01 | 48.99588 | 2.55720 | 786 ft | 174 kts | 266° |
| 2026-05-04 16:01 | 48.99488 | 2.53819 | 1314 ft | 185 kts | 265° |
| 2026-05-04 16:01 | 48.99382 | 2.51818 | 1763 ft | 198 kts | 265° |
| 2026-05-04 16:01 | 48.99263 | 2.49647 | 2117 ft | 214 kts | 265° |
| 2026-05-04 16:02 | 48.99132 | 2.47258 | 2396 ft | 239 kts | 265° |
| 2026-05-04 16:02 | 48.98987 | 2.44602 | 2981 ft | 263 kts | 266° |
| 2026-05-04 16:02 | 48.98676 | 2.38857 | 5058 ft | 274 kts | 265° |
| 2026-05-04 16:03 | 48.98516 | 2.35930 | 6002 ft | 279 kts | 265° |
| 2026-05-04 16:03 | 48.98354 | 2.32968 | 6895 ft | 282 kts | 265° |
| 2026-05-04 16:03 | 48.98188 | 2.29973 | 7742 ft | 286 kts | 265° |
| 2026-05-04 16:03 | 48.98017 | 2.26935 | 8590 ft | 289 kts | 265° |
| 2026-05-04 16:04 | 48.97843 | 2.23869 | 9439 ft | 292 kts | 265° |
| 2026-05-04 16:04 | 48.97477 | 2.17515 | 10477 ft | 320 kts | 265° |
| 2026-05-04 16:04 | 48.97278 | 2.14060 | 10896 ft | 333 kts | 265° |
| 2026-05-04 16:05 | 48.97074 | 2.10519 | 11551 ft | 339 kts | 264° |
| 2026-05-04 16:05 | 48.96714 | 2.06963 | 11864 ft | 341 kts | 252° |
| 2026-05-04 16:05 | 48.93929 | 2.01351 | 11950 ft | 337 kts | 211° |
| 2026-05-04 16:06 | 48.91792 | 1.99984 | 11955 ft | 334 kts | 191° |
| 2026-05-04 16:06 | 48.85649 | 1.99666 | 11949 ft | 332 kts | 179° |
| 2026-05-04 16:07 | 48.82555 | 1.99634 | 11949 ft | 332 kts | 179° |
| 2026-05-04 16:07 | 48.75619 | 1.99536 | 11945 ft | 332 kts | 179° |
| 2026-05-04 16:08 | 48.73307 | 1.99510 | 11946 ft | 332 kts | 179° |
| 2026-05-04 16:08 | 48.66374 | 1.99529 | 11947 ft | 332 kts | 173° |
| 2026-05-04 16:09 | 48.61979 | 2.01450 | 11949 ft | 329 kts | 157° |
| 2026-05-04 16:09 | 48.57714 | 2.04000 | 11948 ft | 330 kts | 158° |
| 2026-05-04 16:10 | 48.53449 | 2.06537 | 11949 ft | 330 kts | 158° |
| 2026-05-04 16:11 | 48.46939 | 2.10399 | 14048 ft | 339 kts | 158° |
| 2026-05-04 16:11 | 48.44765 | 2.11687 | 14705 ft | 342 kts | 158° |
| 2026-05-04 16:12 | 48.38044 | 2.15666 | 16680 ft | 351 kts | 160° |
| 2026-05-04 16:12 | 48.31127 | 2.19730 | 18562 ft | 360 kts | 160° |
| 2026-05-04 16:13 | 48.26279 | 2.21645 | 19679 ft | 363 kts | 172° |
| 2026-05-04 16:13 | 48.21273 | 2.22850 | 20818 ft | 366 kts | 172° |
| 2026-05-04 16:14 | 48.16225 | 2.24063 | 21900 ft | 369 kts | 173° |
| 2026-05-04 16:14 | 48.11130 | 2.25296 | 22884 ft | 373 kts | 173° |
| 2026-05-04 16:15 | 48.03256 | 2.26317 | 23708 ft | 392 kts | 179° |
| 2026-05-04 16:16 | 47.97657 | 2.26650 | 24060 ft | 410 kts | 179° |
| 2026-05-04 16:16 | 47.89045 | 2.27200 | 25261 ft | 416 kts | 179° |
| 2026-05-04 16:17 | 47.83234 | 2.27573 | 26109 ft | 419 kts | 179° |
| 2026-05-04 16:18 | 47.74441 | 2.28139 | 27261 ft | 424 kts | 179° |
| 2026-05-04 16:18 | 47.71493 | 2.28324 | 27605 ft | 425 kts | 180° |
| 2026-05-04 16:19 | 47.62589 | 2.28869 | 28553 ft | 429 kts | 180° |
| 2026-05-04 16:19 | 47.56634 | 2.29250 | 29356 ft | 427 kts | 179° |
| 2026-05-04 16:20 | 47.47777 | 2.29816 | 30504 ft | 422 kts | 180° |
| 2026-05-04 16:20 | 47.41933 | 2.30180 | 31223 ft | 419 kts | 180° |
| 2026-05-04 16:21 | 47.33250 | 2.30725 | 32306 ft | 414 kts | 180° |
| 2026-05-04 16:22 | 47.27518 | 2.31073 | 33061 ft | 411 kts | 180° |
| 2026-05-04 16:22 | 47.19035 | 2.31584 | 34129 ft | 406 kts | 180° |
| 2026-05-04 16:23 | 47.11463 | 2.32060 | 34727 ft | 408 kts | 180° |
| 2026-05-04 16:24 | 47.00096 | 2.32760 | 34922 ft | 408 kts | 180° |
| 2026-05-04 16:25 | 46.94425 | 2.33107 | 34923 ft | 408 kts | 180° |
| 2026-05-04 16:26 | 46.83107 | 2.33277 | 34921 ft | 406 kts | 192° |
| 2026-05-04 16:26 | 46.74912 | 2.30232 | 34920 ft | 405 kts | 196° |
| 2026-05-04 16:28 | 46.61292 | 2.25005 | 34910 ft | 405 kts | 196° |
| 2026-05-04 16:29 | 46.42236 | 2.17739 | 34906 ft | 404 kts | 195° |
| 2026-05-04 16:31 | 46.28641 | 2.12588 | 34901 ft | 404 kts | 195° |
| 2026-05-04 16:32 | 46.12116 | 2.07653 | 34897 ft | 406 kts | 188° |
| 2026-05-04 16:33 | 46.00893 | 2.05591 | 34900 ft | 407 kts | 189° |
| 2026-05-04 16:34 | 45.92460 | 2.04033 | 34902 ft | 407 kts | 189° |
| 2026-05-04 16:35 | 45.75585 | 2.00931 | 34910 ft | 407 kts | 189° |
| 2026-05-04 16:36 | 45.67154 | 1.99392 | 34917 ft | 407 kts | 189° |
| 2026-05-04 16:37 | 45.58724 | 1.97855 | 34921 ft | 407 kts | 188° |
| 2026-05-04 16:38 | 45.47471 | 1.95811 | 34917 ft | 408 kts | 189° |
| 2026-05-04 16:39 | 45.33419 | 1.93283 | 34921 ft | 408 kts | 189° |
| 2026-05-04 16:40 | 45.22194 | 1.91264 | 34951 ft | 405 kts | 188° |
| 2026-05-04 16:41 | 45.08258 | 1.88763 | 34941 ft | 403 kts | 189° |
| 2026-05-04 16:43 | 44.94391 | 1.86287 | 34922 ft | 401 kts | 188° |
| 2026-05-04 16:43 | 44.86087 | 1.84809 | 34922 ft | 401 kts | 188° |
| 2026-05-04 16:45 | 44.69412 | 1.81874 | 34914 ft | 404 kts | 188° |
| 2026-05-04 16:46 | 44.55484 | 1.79420 | 33776 ft | 410 kts | 188° |
| 2026-05-04 16:47 | 44.49806 | 1.78422 | 30571 ft | 416 kts | 187° |
| 2026-05-04 16:47 | 44.43984 | 1.77408 | 26557 ft | 425 kts | 187° |
| 2026-05-04 16:48 | 44.35201 | 1.75875 | 20842 ft | 420 kts | 188° |
| 2026-05-04 16:48 | 44.32327 | 1.75318 | 19149 ft | 413 kts | 192° |
| 2026-05-04 16:49 | 44.27156 | 1.72488 | 18188 ft | 395 kts | 210° |
| 2026-05-04 16:49 | 44.22581 | 1.68244 | 17275 ft | 393 kts | 213° |
| 2026-05-04 16:50 | 44.18096 | 1.63962 | 16215 ft | 389 kts | 214° |
| 2026-05-04 16:50 | 44.13666 | 1.59715 | 15176 ft | 384 kts | 214° |
| 2026-05-04 16:51 | 44.09287 | 1.55536 | 14153 ft | 380 kts | 214° |
| 2026-05-04 16:51 | 44.07115 | 1.53468 | 13638 ft | 377 kts | 214° |
| 2026-05-04 16:51 | 44.02812 | 1.49380 | 12608 ft | 372 kts | 214° |
| 2026-05-04 16:52 | 43.98455 | 1.45621 | 11607 ft | 366 kts | 205° |
| 2026-05-04 16:52 | 43.96054 | 1.44481 | 11116 ft | 365 kts | 194° |
| 2026-05-04 16:53 | 43.91277 | 1.43320 | 10721 ft | 330 kts | 191° |
| 2026-05-04 16:53 | 43.84975 | 1.41961 | 10312 ft | 286 kts | 182° |
| 2026-05-04 16:54 | 43.83011 | 1.42253 | 10073 ft | 284 kts | 169° |
| 2026-05-04 16:55 | 43.76388 | 1.48049 | 9474 ft | 287 kts | 146° |
| 2026-05-04 16:55 | 43.73253 | 1.51427 | 8886 ft | 284 kts | 145° |
| 2026-05-04 16:56 | 43.70143 | 1.54770 | 8207 ft | 283 kts | 144° |
| 2026-05-04 16:56 | 43.65511 | 1.59735 | 7183 ft | 279 kts | 143° |
| 2026-05-04 16:57 | 43.63977 | 1.61373 | 6842 ft | 278 kts | 146° |
| 2026-05-04 16:57 | 43.60434 | 1.63143 | 6167 ft | 272 kts | 178° |
| 2026-05-04 16:58 | 43.55119 | 1.62394 | 5600 ft | 247 kts | 188° |
| 2026-05-04 16:58 | 43.53433 | 1.62119 | 5430 ft | 248 kts | 187° |
| 2026-05-04 16:59 | 43.50065 | 1.61390 | 4859 ft | 243 kts | 203° |
| 2026-05-04 17:00 | 43.47503 | 1.53451 | 4083 ft | 240 kts | 289° |
| 2026-05-04 17:00 | 43.50640 | 1.48893 | 3287 ft | 208 kts | 321° |
| 2026-05-04 17:01 | 43.52868 | 1.46587 | 2768 ft | 192 kts | 320° |
| 2026-05-04 17:01 | 43.54869 | 1.44514 | 2284 ft | 162 kts | 320° |
| 2026-05-04 17:02 | 43.56492 | 1.42830 | 1876 ft | 134 kts | 319° |
| 2026-05-04 17:02 | 43.57942 | 1.41323 | 1520 ft | 130 kts | 319° |
| 2026-05-04 17:03 | 43.58666 | 1.40573 | 1322 ft | 130 kts | 320° |
| 2026-05-04 17:03 | 43.59399 | 1.39810 | 1158 ft | 131 kts | 318° |
| 2026-05-04 17:03 | 43.60842 | 1.38307 | 789 ft | 129 kts | 322° |
| 2026-05-04 17:04 | 43.62263 | 1.36839 | 486 ft | 122 kts | 320° |
| 2026-05-04 17:04 | 43.63054 | 1.36006 | 485 ft | 40 kts | 323° |
| 2026-05-04 17:05 | 43.63470 | 1.35572 | 488 ft | 25 kts | 324° |
| 2026-05-04 17:05 | 43.63694 | 1.35714 | 486 ft | 20 kts | 54° |
| 2026-05-04 17:06 | 43.63806 | 1.35981 | 495 ft | 11 kts | 106° |
| 2026-05-04 17:06 | 43.63737 | 1.36072 | 496 ft | 20 kts | 143° |
| 2026-05-04 17:07 | 43.63449 | 1.36371 | 492 ft | 27 kts | 143° |
| 2026-05-04 17:07 | 43.63399 | 1.36422 | 488 ft | 26 kts | 143° |
| 2026-05-04 17:07 | 43.63161 | 1.36671 | 493 ft | 25 kts | 143° |
| 2026-05-04 17:07 | 43.63023 | 1.36814 | 491 ft | 24 kts | 142° |
| 2026-05-04 17:08 | 43.62953 | 1.36942 | 491 ft | 14 kts | 79° |
| 2026-05-04 17:08 | 43.63004 | 1.37117 | 495 ft | 10 kts | 91° |
| 2026-05-04 17:08 | 43.63007 | 1.37189 | 490 ft | 6 kts | 64° |
| 2026-05-04 17:09 | 43.63024 | 1.37224 | 493 ft | 3 kts | 54° |
| 2026-05-04 17:09 | 43.63036 | 1.37245 | 488 ft | 4 kts | 53° |
| 2026-05-04 17:09 | 43.63043 | 1.37257 | 490 ft | 0 kts | 53° |